Garfield, Ohio
Current Conditions -  °F | °C
As of 9:53 AM on Friday 24 Oct 2014 (Local Time) from KBKL Reporting Station
Clear Clear  
Wind Chill: 10°   Ceiling: Unl
Heat Index: 10°   Visibility: 10mi
Dew Point:   Wind: 5mph
Humidity: 71%   Direction: 200°SSW
Pressure: 30.09"   Gusts: NA
Location:  41.4062°N, 81.6149°W
Report Text: KBKL 241353Z 20004KT 10SM CLR 10/05 A3009 RMK AO2 SLP192 T01000050
Loading
Personal Weather Stations






























Interactive Weather Map
Tropical Storm Tracking
New forecast layout! Learn more

10-Day Weather Forecast

Advertisements
Track Severe Weather on mobile